sensor_id;sensor_type;location;lat;lon;timestamp;P1;durP1;ratioP1;P2;durP2;ratioP2
15812;SDS011;8007;51.404;6.304;2022-09-17T00:00:49;7.77;;;2.20;;
15812;SDS011;8007;51.404;6.304;2022-09-17T00:02:52;3.77;;;2.30;;
15812;SDS011;8007;51.404;6.304;2022-09-17T00:04:56;7.80;;;1.87;;
15812;SDS011;8007;51.404;6.304;2022-09-17T00:06:58;6.07;;;2.00;;
15812;SDS011;8007;51.404;6.304;2022-09-17T00:09:01;8.57;;;2.50;;
15812;SDS011;8007;51.404;6.304;2022-09-17T00:11:05;10.63;;;2.33;;
15812;SDS011;8007;51.404;6.304;2022-09-17T00:13:08;9.13;;;2.07;;
15812;SDS011;8007;51.404;6.304;2022-09-17T00:15:11;6.43;;;2.00;;
15812;SDS011;8007;51.404;6.304;2022-09-17T00:17:13;8.00;;;2.30;;
15812;SDS011;8007;51.404;6.304;2022-09-17T00:19:16;6.33;;;2.57;;
15812;SDS011;8007;51.404;6.304;2022-09-17T00:21:21;10.00;;;2.83;;
15812;SDS011;8007;51.404;6.304;2022-09-17T00:23:24;9.17;;;2.60;;
15812;SDS011;8007;51.404;6.304;2022-09-17T00:25:26;12.93;;;3.10;;
15812;SDS011;8007;51.404;6.304;2022-09-17T00:27:29;7.47;;;2.47;;
15812;SDS011;8007;51.404;6.304;2022-09-17T00:29:31;8.63;;;2.60;;
15812;SDS011;8007;51.404;6.304;2022-09-17T00:31:34;8.83;;;2.73;;
15812;SDS011;8007;51.404;6.304;2022-09-17T00:33:36;10.83;;;2.60;;
15812;SDS011;8007;51.404;6.304;2022-09-17T00:35:38;10.43;;;2.67;;
15812;SDS011;8007;51.404;6.304;2022-09-17T00:37:42;7.77;;;2.97;;
15812;SDS011;8007;51.404;6.304;2022-09-17T00:39:44;13.83;;;3.30;;
15812;SDS011;8007;51.404;6.304;2022-09-17T00:41:47;7.90;;;2.63;;
15812;SDS011;8007;51.404;6.304;2022-09-17T00:43:50;13.57;;;3.20;;
15812;SDS011;8007;51.404;6.304;2022-09-17T00:45:54;8.70;;;2.90;;
15812;SDS011;8007;51.404;6.304;2022-09-17T00:47:57;10.07;;;3.40;;
15812;SDS011;8007;51.404;6.304;2022-09-17T00:50:00;11.17;;;3.87;;
15812;SDS011;8007;51.404;6.304;2022-09-17T00:52:08;8.20;;;3.00;;
15812;SDS011;8007;51.404;6.304;2022-09-17T00:54:15;6.10;;;3.33;;
15812;SDS011;8007;51.404;6.304;2022-09-17T00:56:18;10.33;;;3.00;;
15812;SDS011;8007;51.404;6.304;2022-09-17T00:58:23;8.93;;;2.70;;
15812;SDS011;8007;51.404;6.304;2022-09-17T01:00:26;9.67;;;2.67;;
15812;SDS011;8007;51.404;6.304;2022-09-17T01:02:29;10.90;;;2.53;;
15812;SDS011;8007;51.404;6.304;2022-09-17T01:04:32;7.17;;;3.17;;
15812;SDS011;8007;51.404;6.304;2022-09-17T01:06:36;11.47;;;2.77;;
15812;SDS011;8007;51.404;6.304;2022-09-17T01:08:46;8.40;;;2.80;;
15812;SDS011;8007;51.404;6.304;2022-09-17T01:13:28;7.27;;;2.70;;
15812;SDS011;8007;51.404;6.304;2022-09-17T01:15:36;9.57;;;2.97;;
15812;SDS011;8007;51.404;6.304;2022-09-17T01:17:45;10.20;;;2.53;;
15812;SDS011;8007;51.404;6.304;2022-09-17T01:20:06;5.77;;;2.20;;
15812;SDS011;8007;51.404;6.304;2022-09-17T01:22:36;9.43;;;2.60;;
15812;SDS011;8007;51.404;6.304;2022-09-17T01:24:59;10.43;;;2.47;;
15812;SDS011;8007;51.404;6.304;2022-09-17T01:27:33;9.83;;;3.03;;
15812;SDS011;8007;51.404;6.304;2022-09-17T01:30:09;15.50;;;2.47;;
15812;SDS011;8007;51.404;6.304;2022-09-17T01:32:23;11.03;;;2.60;;
15812;SDS011;8007;51.404;6.304;2022-09-17T01:34:29;9.73;;;2.33;;
15812;SDS011;8007;51.404;6.304;2022-09-17T01:36:42;12.57;;;2.33;;
15812;SDS011;8007;51.404;6.304;2022-09-17T01:38:57;8.17;;;2.30;;
15812;SDS011;8007;51.404;6.304;2022-09-17T01:41:04;11.80;;;2.50;;
15812;SDS011;8007;51.404;6.304;2022-09-17T01:43:10;9.90;;;2.53;;
15812;SDS011;8007;51.404;6.304;2022-09-17T01:45:17;11.27;;;2.50;;
15812;SDS011;8007;51.404;6.304;2022-09-17T01:47:25;9.50;;;2.43;;
15812;SDS011;8007;51.404;6.304;2022-09-17T01:49:30;8.10;;;2.93;;
15812;SDS011;8007;51.404;6.304;2022-09-17T01:51:35;11.20;;;2.70;;
15812;SDS011;8007;51.404;6.304;2022-09-17T01:53:40;8.10;;;2.67;;
15812;SDS011;8007;51.404;6.304;2022-09-17T01:55:46;6.33;;;1.90;;
15812;SDS011;8007;51.404;6.304;2022-09-17T01:57:50;6.03;;;1.93;;
15812;SDS011;8007;51.404;6.304;2022-09-17T01:59:56;9.90;;;2.37;;
15812;SDS011;8007;51.404;6.304;2022-09-17T02:02:02;9.80;;;2.50;;
15812;SDS011;8007;51.404;6.304;2022-09-17T02:04:09;8.53;;;2.83;;
15812;SDS011;8007;51.404;6.304;2022-09-17T02:06:14;8.80;;;2.10;;
15812;SDS011;8007;51.404;6.304;2022-09-17T02:08:18;10.80;;;2.27;;
15812;SDS011;8007;51.404;6.304;2022-09-17T02:10:22;15.10;;;2.50;;
15812;SDS011;8007;51.404;6.304;2022-09-17T02:12:28;11.67;;;2.97;;
15812;SDS011;8007;51.404;6.304;2022-09-17T02:14:33;10.27;;;2.30;;
15812;SDS011;8007;51.404;6.304;2022-09-17T02:16:39;7.53;;;2.50;;
15812;SDS011;8007;51.404;6.304;2022-09-17T02:18:45;12.93;;;2.73;;
15812;SDS011;8007;51.404;6.304;2022-09-17T02:20:53;10.17;;;2.07;;
15812;SDS011;8007;51.404;6.304;2022-09-17T02:22:58;8.53;;;2.10;;
15812;SDS011;8007;51.404;6.304;2022-09-17T02:25:05;8.07;;;2.17;;
15812;SDS011;8007;51.404;6.304;2022-09-17T02:27:11;7.10;;;2.27;;
15812;SDS011;8007;51.404;6.304;2022-09-17T02:29:31;12.47;;;2.60;;
15812;SDS011;8007;51.404;6.304;2022-09-17T02:31:35;12.37;;;2.50;;
15812;SDS011;8007;51.404;6.304;2022-09-17T02:33:40;17.73;;;2.93;;
15812;SDS011;8007;51.404;6.304;2022-09-17T02:35:43;9.13;;;2.20;;
15812;SDS011;8007;51.404;6.304;2022-09-17T02:37:48;7.80;;;1.93;;
15812;SDS011;8007;51.404;6.304;2022-09-17T02:39:52;14.70;;;3.13;;
15812;SDS011;8007;51.404;6.304;2022-09-17T02:41:57;11.50;;;3.17;;
15812;SDS011;8007;51.404;6.304;2022-09-17T02:44:07;9.23;;;2.53;;
15812;SDS011;8007;51.404;6.304;2022-09-17T02:46:19;12.80;;;2.10;;
15812;SDS011;8007;51.404;6.304;2022-09-17T02:48:46;12.77;;;2.93;;
15812;SDS011;8007;51.404;6.304;2022-09-17T02:51:10;6.77;;;2.73;;
15812;SDS011;8007;51.404;6.304;2022-09-17T02:53:25;11.73;;;2.07;;
15812;SDS011;8007;51.404;6.304;2022-09-17T02:55:33;6.80;;;2.00;;
15812;SDS011;8007;51.404;6.304;2022-09-17T02:57:39;6.73;;;1.70;;
15812;SDS011;8007;51.404;6.304;2022-09-17T02:59:47;10.27;;;1.90;;
15812;SDS011;8007;51.404;6.304;2022-09-17T03:01:57;9.70;;;2.57;;
15812;SDS011;8007;51.404;6.304;2022-09-17T03:04:03;8.90;;;2.20;;
15812;SDS011;8007;51.404;6.304;2022-09-17T03:06:06;5.80;;;1.90;;
15812;SDS011;8007;51.404;6.304;2022-09-17T03:08:11;10.53;;;2.37;;
15812;SDS011;8007;51.404;6.304;2022-09-17T03:10:16;13.57;;;2.73;;
15812;SDS011;8007;51.404;6.304;2022-09-17T03:12:18;10.83;;;1.97;;
15812;SDS011;8007;51.404;6.304;2022-09-17T03:14:23;8.17;;;1.63;;
15812;SDS011;8007;51.404;6.304;2022-09-17T03:16:26;9.63;;;2.20;;
15812;SDS011;8007;51.404;6.304;2022-09-17T03:18:28;7.40;;;2.23;;
15812;SDS011;8007;51.404;6.304;2022-09-17T03:20:30;6.60;;;1.93;;
15812;SDS011;8007;51.404;6.304;2022-09-17T03:22:33;15.50;;;2.97;;
15812;SDS011;8007;51.404;6.304;2022-09-17T03:24:35;10.67;;;2.43;;
15812;SDS011;8007;51.404;6.304;2022-09-17T03:26:39;5.10;;;1.60;;
15812;SDS011;8007;51.404;6.304;2022-09-17T03:28:41;13.33;;;2.40;;
15812;SDS011;8007;51.404;6.304;2022-09-17T03:30:44;10.67;;;2.30;;
15812;SDS011;8007;51.404;6.304;2022-09-17T03:32:47;10.30;;;2.20;;
15812;SDS011;8007;51.404;6.304;2022-09-17T03:34:49;9.33;;;1.77;;
15812;SDS011;8007;51.404;6.304;2022-09-17T03:36:52;5.80;;;1.50;;
15812;SDS011;8007;51.404;6.304;2022-09-17T03:38:55;11.60;;;1.70;;
15812;SDS011;8007;51.404;6.304;2022-09-17T03:40:58;6.47;;;1.60;;
15812;SDS011;8007;51.404;6.304;2022-09-17T03:43:02;11.20;;;1.83;;
15812;SDS011;8007;51.404;6.304;2022-09-17T03:45:05;6.53;;;1.47;;
15812;SDS011;8007;51.404;6.304;2022-09-17T03:47:08;7.00;;;2.27;;
15812;SDS011;8007;51.404;6.304;2022-09-17T03:49:11;6.17;;;1.90;;
15812;SDS011;8007;51.404;6.304;2022-09-17T03:51:13;10.63;;;1.90;;
15812;SDS011;8007;51.404;6.304;2022-09-17T03:53:16;9.13;;;1.40;;
15812;SDS011;8007;51.404;6.304;2022-09-17T03:55:18;8.73;;;2.13;;
15812;SDS011;8007;51.404;6.304;2022-09-17T03:57:21;10.13;;;2.20;;
15812;SDS011;8007;51.404;6.304;2022-09-17T03:59:24;12.57;;;2.70;;
15812;SDS011;8007;51.404;6.304;2022-09-17T04:01:28;11.03;;;2.70;;
15812;SDS011;8007;51.404;6.304;2022-09-17T04:03:31;6.47;;;1.37;;
15812;SDS011;8007;51.404;6.304;2022-09-17T04:05:33;8.10;;;1.77;;
15812;SDS011;8007;51.404;6.304;2022-09-17T04:07:35;10.80;;;1.60;;
15812;SDS011;8007;51.404;6.304;2022-09-17T04:09:39;9.80;;;1.93;;
15812;SDS011;8007;51.404;6.304;2022-09-17T04:11:41;7.87;;;2.30;;
15812;SDS011;8007;51.404;6.304;2022-09-17T04:13:44;12.23;;;1.97;;
15812;SDS011;8007;51.404;6.304;2022-09-17T04:15:47;6.97;;;1.50;;
15812;SDS011;8007;51.404;6.304;2022-09-17T04:17:53;10.97;;;1.90;;
15812;SDS011;8007;51.404;6.304;2022-09-17T04:19:57;12.17;;;1.70;;
15812;SDS011;8007;51.404;6.304;2022-09-17T04:22:00;11.00;;;2.10;;
15812;SDS011;8007;51.404;6.304;2022-09-17T04:24:02;10.67;;;2.10;;
15812;SDS011;8007;51.404;6.304;2022-09-17T04:26:04;9.17;;;1.87;;
15812;SDS011;8007;51.404;6.304;2022-09-17T04:28:07;10.27;;;1.57;;
15812;SDS011;8007;51.404;6.304;2022-09-17T04:30:10;8.60;;;1.80;;
15812;SDS011;8007;51.404;6.304;2022-09-17T04:32:14;6.43;;;1.53;;
15812;SDS011;8007;51.404;6.304;2022-09-17T04:34:16;9.67;;;2.17;;
15812;SDS011;8007;51.404;6.304;2022-09-17T04:36:18;8.30;;;2.00;;
15812;SDS011;8007;51.404;6.304;2022-09-17T04:38:21;8.67;;;1.83;;
15812;SDS011;8007;51.404;6.304;2022-09-17T04:40:23;11.80;;;2.73;;
15812;SDS011;8007;51.404;6.304;2022-09-17T04:42:26;7.03;;;1.50;;
15812;SDS011;8007;51.404;6.304;2022-09-17T04:44:29;8.70;;;1.70;;
15812;SDS011;8007;51.404;6.304;2022-09-17T04:46:31;8.00;;;2.00;;
15812;SDS011;8007;51.404;6.304;2022-09-17T04:48:35;4.60;;;1.60;;
15812;SDS011;8007;51.404;6.304;2022-09-17T04:50:37;11.87;;;2.37;;
15812;SDS011;8007;51.404;6.304;2022-09-17T04:52:40;7.70;;;1.50;;
15812;SDS011;8007;51.404;6.304;2022-09-17T04:54:43;10.10;;;2.37;;
15812;SDS011;8007;51.404;6.304;2022-09-17T04:56:46;10.47;;;1.40;;
15812;SDS011;8007;51.404;6.304;2022-09-17T04:58:48;14.17;;;1.90;;
15812;SDS011;8007;51.404;6.304;2022-09-17T05:00:50;8.47;;;1.50;;
15812;SDS011;8007;51.404;6.304;2022-09-17T05:02:53;7.03;;;1.60;;
15812;SDS011;8007;51.404;6.304;2022-09-17T05:04:57;6.37;;;1.73;;
15812;SDS011;8007;51.404;6.304;2022-09-17T05:07:00;7.70;;;1.77;;
15812;SDS011;8007;51.404;6.304;2022-09-17T05:09:02;6.13;;;1.47;;
15812;SDS011;8007;51.404;6.304;2022-09-17T05:11:05;6.60;;;1.40;;
15812;SDS011;8007;51.404;6.304;2022-09-17T05:13:07;12.23;;;1.53;;
15812;SDS011;8007;51.404;6.304;2022-09-17T05:15:09;10.80;;;1.87;;
15812;SDS011;8007;51.404;6.304;2022-09-17T05:17:12;10.17;;;2.07;;
15812;SDS011;8007;51.404;6.304;2022-09-17T05:19:14;12.60;;;1.43;;
15812;SDS011;8007;51.404;6.304;2022-09-17T05:21:18;9.57;;;1.40;;
15812;SDS011;8007;51.404;6.304;2022-09-17T05:23:20;6.53;;;1.17;;
15812;SDS011;8007;51.404;6.304;2022-09-17T05:25:23;9.13;;;2.00;;
15812;SDS011;8007;51.404;6.304;2022-09-17T05:27:25;14.07;;;2.13;;
15812;SDS011;8007;51.404;6.304;2022-09-17T05:29:27;6.77;;;1.43;;
15812;SDS011;8007;51.404;6.304;2022-09-17T05:31:29;10.47;;;1.77;;
15812;SDS011;8007;51.404;6.304;2022-09-17T05:33:32;6.03;;;1.47;;
15812;SDS011;8007;51.404;6.304;2022-09-17T05:35:34;11.90;;;1.90;;
15812;SDS011;8007;51.404;6.304;2022-09-17T05:37:38;9.40;;;1.50;;
15812;SDS011;8007;51.404;6.304;2022-09-17T05:39:40;7.87;;;1.60;;
15812;SDS011;8007;51.404;6.304;2022-09-17T05:41:43;7.33;;;1.57;;
15812;SDS011;8007;51.404;6.304;2022-09-17T05:43:45;7.13;;;1.40;;
15812;SDS011;8007;51.404;6.304;2022-09-17T05:45:47;6.93;;;1.67;;
15812;SDS011;8007;51.404;6.304;2022-09-17T05:47:53;10.80;;;1.77;;
15812;SDS011;8007;51.404;6.304;2022-09-17T05:49:55;9.77;;;1.50;;
15812;SDS011;8007;51.404;6.304;2022-09-17T05:51:58;8.50;;;1.20;;
15812;SDS011;8007;51.404;6.304;2022-09-17T05:54:03;6.20;;;1.50;;
15812;SDS011;8007;51.404;6.304;2022-09-17T05:56:06;8.70;;;1.20;;
15812;SDS011;8007;51.404;6.304;2022-09-17T05:58:08;8.60;;;1.60;;
15812;SDS011;8007;51.404;6.304;2022-09-17T06:00:12;7.60;;;2.03;;
15812;SDS011;8007;51.404;6.304;2022-09-17T06:02:15;7.23;;;1.23;;
15812;SDS011;8007;51.404;6.304;2022-09-17T06:04:17;6.17;;;1.23;;
15812;SDS011;8007;51.404;6.304;2022-09-17T06:06:19;5.07;;;1.37;;
15812;SDS011;8007;51.404;6.304;2022-09-17T06:08:22;12.80;;;1.60;;
15812;SDS011;8007;51.404;6.304;2022-09-17T06:10:25;9.10;;;1.40;;
15812;SDS011;8007;51.404;6.304;2022-09-17T06:12:28;6.00;;;1.50;;
15812;SDS011;8007;51.404;6.304;2022-09-17T06:14:30;9.50;;;1.40;;
15812;SDS011;8007;51.404;6.304;2022-09-17T06:16:32;8.73;;;1.80;;
15812;SDS011;8007;51.404;6.304;2022-09-17T06:18:35;3.20;;;1.20;;
15812;SDS011;8007;51.404;6.304;2022-09-17T06:20:37;8.23;;;1.50;;
15812;SDS011;8007;51.404;6.304;2022-09-17T06:22:39;9.90;;;1.23;;
15812;SDS011;8007;51.404;6.304;2022-09-17T06:24:42;10.47;;;1.27;;
15812;SDS011;8007;51.404;6.304;2022-09-17T06:26:45;9.40;;;2.53;;
15812;SDS011;8007;51.404;6.304;2022-09-17T06:28:48;6.77;;;1.40;;
15812;SDS011;8007;51.404;6.304;2022-09-17T06:30:50;12.07;;;2.33;;
15812;SDS011;8007;51.404;6.304;2022-09-17T06:32:53;10.47;;;1.80;;
15812;SDS011;8007;51.404;6.304;2022-09-17T06:34:55;5.23;;;1.47;;
15812;SDS011;8007;51.404;6.304;2022-09-17T06:36:58;9.93;;;2.43;;
15812;SDS011;8007;51.404;6.304;2022-09-17T06:39:00;7.73;;;1.30;;
15812;SDS011;8007;51.404;6.304;2022-09-17T06:41:03;9.20;;;2.53;;
15812;SDS011;8007;51.404;6.304;2022-09-17T06:43:07;11.57;;;2.43;;
15812;SDS011;8007;51.404;6.304;2022-09-17T06:45:09;10.83;;;1.50;;
15812;SDS011;8007;51.404;6.304;2022-09-17T06:47:12;13.67;;;1.70;;
15812;SDS011;8007;51.404;6.304;2022-09-17T06:49:14;5.57;;;1.50;;
15812;SDS011;8007;51.404;6.304;2022-09-17T06:51:16;9.50;;;1.90;;
15812;SDS011;8007;51.404;6.304;2022-09-17T06:53:19;7.57;;;1.67;;
15812;SDS011;8007;51.404;6.304;2022-09-17T06:55:21;8.30;;;1.37;;
15812;SDS011;8007;51.404;6.304;2022-09-17T06:57:25;6.47;;;2.03;;
15812;SDS011;8007;51.404;6.304;2022-09-17T06:59:28;12.17;;;1.80;;
15812;SDS011;8007;51.404;6.304;2022-09-17T07:01:31;5.73;;;1.47;;
15812;SDS011;8007;51.404;6.304;2022-09-17T07:03:33;6.87;;;2.03;;
15812;SDS011;8007;51.404;6.304;2022-09-17T07:05:36;11.07;;;2.27;;
15812;SDS011;8007;51.404;6.304;2022-09-17T07:07:38;7.37;;;1.33;;
15812;SDS011;8007;51.404;6.304;2022-09-17T07:09:41;10.97;;;1.70;;
15812;SDS011;8007;51.404;6.304;2022-09-17T07:11:43;7.70;;;1.30;;
15812;SDS011;8007;51.404;6.304;2022-09-17T07:13:45;7.77;;;1.20;;
15812;SDS011;8007;51.404;6.304;2022-09-17T07:15:52;8.33;;;1.60;;
15812;SDS011;8007;51.404;6.304;2022-09-17T07:17:55;12.30;;;1.90;;
15812;SDS011;8007;51.404;6.304;2022-09-17T07:19:57;8.80;;;1.63;;
15812;SDS011;8007;51.404;6.304;2022-09-17T07:21:59;6.03;;;1.60;;
15812;SDS011;8007;51.404;6.304;2022-09-17T07:24:02;5.77;;;1.27;;
15812;SDS011;8007;51.404;6.304;2022-09-17T07:26:05;11.97;;;2.47;;
15812;SDS011;8007;51.404;6.304;2022-09-17T07:28:09;7.80;;;1.60;;
15812;SDS011;8007;51.404;6.304;2022-09-17T07:30:11;7.90;;;1.70;;
15812;SDS011;8007;51.404;6.304;2022-09-17T07:32:15;4.93;;;1.50;;
15812;SDS011;8007;51.404;6.304;2022-09-17T07:34:18;6.60;;;1.47;;
15812;SDS011;8007;51.404;6.304;2022-09-17T07:36:20;6.10;;;1.67;;
15812;SDS011;8007;51.404;6.304;2022-09-17T07:38:23;10.47;;;1.87;;
15812;SDS011;8007;51.404;6.304;2022-09-17T07:40:26;5.57;;;1.30;;
15812;SDS011;8007;51.404;6.304;2022-09-17T07:42:28;6.07;;;1.60;;
15812;SDS011;8007;51.404;6.304;2022-09-17T07:44:31;4.90;;;1.33;;
15812;SDS011;8007;51.404;6.304;2022-09-17T07:46:33;12.57;;;1.97;;
15812;SDS011;8007;51.404;6.304;2022-09-17T07:48:37;6.17;;;1.37;;
15812;SDS011;8007;51.404;6.304;2022-09-17T07:50:39;5.90;;;2.03;;
15812;SDS011;8007;51.404;6.304;2022-09-17T07:52:44;7.17;;;1.27;;
15812;SDS011;8007;51.404;6.304;2022-09-17T07:54:46;14.90;;;1.87;;
15812;SDS011;8007;51.404;6.304;2022-09-17T07:56:49;3.60;;;1.37;;
15812;SDS011;8007;51.404;6.304;2022-09-17T07:58:51;5.73;;;1.10;;
15812;SDS011;8007;51.404;6.304;2022-09-17T08:00:58;6.13;;;1.30;;
15812;SDS011;8007;51.404;6.304;2022-09-17T08:03:01;6.40;;;1.40;;
15812;SDS011;8007;51.404;6.304;2022-09-17T08:05:05;3.63;;;1.30;;
15812;SDS011;8007;51.404;6.304;2022-09-17T08:07:09;5.73;;;1.43;;
15812;SDS011;8007;51.404;6.304;2022-09-17T08:09:14;9.87;;;1.90;;
15812;SDS011;8007;51.404;6.304;2022-09-17T08:11:18;3.70;;;1.17;;
15812;SDS011;8007;51.404;6.304;2022-09-17T08:13:21;5.70;;;1.30;;
15812;SDS011;8007;51.404;6.304;2022-09-17T08:15:23;6.97;;;1.70;;
15812;SDS011;8007;51.404;6.304;2022-09-17T08:17:26;5.80;;;1.20;;
15812;SDS011;8007;51.404;6.304;2022-09-17T08:19:29;6.23;;;1.30;;
15812;SDS011;8007;51.404;6.304;2022-09-17T08:21:34;5.00;;;1.40;;
15812;SDS011;8007;51.404;6.304;2022-09-17T08:23:37;6.37;;;1.50;;
15812;SDS011;8007;51.404;6.304;2022-09-17T08:25:40;5.13;;;1.50;;
15812;SDS011;8007;51.404;6.304;2022-09-17T08:27:42;9.03;;;1.83;;
15812;SDS011;8007;51.404;6.304;2022-09-17T08:29:44;5.07;;;1.30;;
15812;SDS011;8007;51.404;6.304;2022-09-17T08:31:47;5.00;;;1.43;;
15812;SDS011;8007;51.404;6.304;2022-09-17T08:33:49;5.63;;;1.00;;
15812;SDS011;8007;51.404;6.304;2022-09-17T08:35:52;5.03;;;1.80;;
15812;SDS011;8007;51.404;6.304;2022-09-17T08:37:59;5.23;;;1.30;;
15812;SDS011;8007;51.404;6.304;2022-09-17T08:40:02;2.97;;;0.90;;
15812;SDS011;8007;51.404;6.304;2022-09-17T08:42:06;4.60;;;1.27;;
15812;SDS011;8007;51.404;6.304;2022-09-17T08:44:14;4.60;;;1.20;;
15812;SDS011;8007;51.404;6.304;2022-09-17T08:46:20;5.33;;;1.10;;
15812;SDS011;8007;51.404;6.304;2022-09-17T08:48:24;5.10;;;0.90;;
15812;SDS011;8007;51.404;6.304;2022-09-17T08:50:31;8.17;;;1.10;;
15812;SDS011;8007;51.404;6.304;2022-09-17T08:52:50;4.60;;;1.20;;
15812;SDS011;8007;51.404;6.304;2022-09-17T08:55:15;4.70;;;1.00;;
15812;SDS011;8007;51.404;6.304;2022-09-17T08:57:34;5.80;;;1.30;;
15812;SDS011;8007;51.404;6.304;2022-09-17T08:59:38;3.73;;;0.80;;
15812;SDS011;8007;51.404;6.304;2022-09-17T09:01:44;4.00;;;1.00;;
15812;SDS011;8007;51.404;6.304;2022-09-17T09:03:57;4.67;;;1.47;;
15812;SDS011;8007;51.404;6.304;2022-09-17T09:06:34;2.57;;;1.10;;
15812;SDS011;8007;51.404;6.304;2022-09-17T09:08:41;6.00;;;0.93;;
15812;SDS011;8007;51.404;6.304;2022-09-17T09:10:49;3.87;;;0.80;;
15812;SDS011;8007;51.404;6.304;2022-09-17T09:12:55;6.37;;;1.40;;
15812;SDS011;8007;51.404;6.304;2022-09-17T09:15:00;2.63;;;0.97;;
15812;SDS011;8007;51.404;6.304;2022-09-17T09:17:05;5.10;;;1.23;;
15812;SDS011;8007;51.404;6.304;2022-09-17T09:19:17;8.17;;;1.33;;
15812;SDS011;8007;51.404;6.304;2022-09-17T09:21:24;5.77;;;1.30;;
15812;SDS011;8007;51.404;6.304;2022-09-17T09:23:28;3.67;;;1.00;;
15812;SDS011;8007;51.404;6.304;2022-09-17T09:25:36;2.80;;;1.10;;
15812;SDS011;8007;51.404;6.304;2022-09-17T09:27:45;5.57;;;1.17;;
15812;SDS011;8007;51.404;6.304;2022-09-17T09:29:58;3.27;;;1.10;;
15812;SDS011;8007;51.404;6.304;2022-09-17T09:32:09;4.73;;;0.93;;
15812;SDS011;8007;51.404;6.304;2022-09-17T09:34:18;3.53;;;0.90;;
15812;SDS011;8007;51.404;6.304;2022-09-17T09:36:24;6.57;;;1.10;;
15812;SDS011;8007;51.404;6.304;2022-09-17T09:38:30;3.90;;;1.00;;
15812;SDS011;8007;51.404;6.304;2022-09-17T09:40:35;4.27;;;1.07;;
15812;SDS011;8007;51.404;6.304;2022-09-17T09:42:41;7.13;;;1.20;;
15812;SDS011;8007;51.404;6.304;2022-09-17T09:44:46;4.60;;;1.07;;
15812;SDS011;8007;51.404;6.304;2022-09-17T09:47:02;3.67;;;0.80;;
15812;SDS011;8007;51.404;6.304;2022-09-17T09:49:38;5.70;;;1.30;;
15812;SDS011;8007;51.404;6.304;2022-09-17T09:51:53;5.77;;;1.20;;
15812;SDS011;8007;51.404;6.304;2022-09-17T09:54:07;3.03;;;1.03;;
15812;SDS011;8007;51.404;6.304;2022-09-17T09:58:54;3.47;;;0.90;;
15812;SDS011;8007;51.404;6.304;2022-09-17T10:00:56;4.47;;;0.90;;
15812;SDS011;8007;51.404;6.304;2022-09-17T10:03:00;3.47;;;1.03;;
15812;SDS011;8007;51.404;6.304;2022-09-17T10:05:06;3.80;;;1.07;;
15812;SDS011;8007;51.404;6.304;2022-09-17T10:07:10;4.67;;;0.83;;
15812;SDS011;8007;51.404;6.304;2022-09-17T10:09:13;4.53;;;1.30;;
15812;SDS011;8007;51.404;6.304;2022-09-17T10:11:19;3.87;;;0.80;;
15812;SDS011;8007;51.404;6.304;2022-09-17T10:13:26;4.80;;;0.70;;
15812;SDS011;8007;51.404;6.304;2022-09-17T10:15:31;2.83;;;0.80;;
15812;SDS011;8007;51.404;6.304;2022-09-17T10:17:33;4.63;;;0.70;;
15812;SDS011;8007;51.404;6.304;2022-09-17T10:19:35;2.33;;;0.73;;
15812;SDS011;8007;51.404;6.304;2022-09-17T10:21:38;3.60;;;0.80;;
15812;SDS011;8007;51.404;6.304;2022-09-17T10:23:42;3.30;;;0.90;;
15812;SDS011;8007;51.404;6.304;2022-09-17T10:25:44;5.80;;;0.80;;
15812;SDS011;8007;51.404;6.304;2022-09-17T10:27:47;3.13;;;0.60;;
15812;SDS011;8007;51.404;6.304;2022-09-17T10:29:51;8.37;;;0.70;;
15812;SDS011;8007;51.404;6.304;2022-09-17T10:31:59;4.23;;;0.83;;
15812;SDS011;8007;51.404;6.304;2022-09-17T10:34:09;3.03;;;0.83;;
15812;SDS011;8007;51.404;6.304;2022-09-17T10:36:36;3.80;;;0.80;;
15812;SDS011;8007;51.404;6.304;2022-09-17T10:38:41;4.83;;;0.83;;
15812;SDS011;8007;51.404;6.304;2022-09-17T10:40:45;3.30;;;0.70;;
15812;SDS011;8007;51.404;6.304;2022-09-17T10:42:48;2.37;;;0.80;;
15812;SDS011;8007;51.404;6.304;2022-09-17T10:44:52;3.60;;;0.80;;
15812;SDS011;8007;51.404;6.304;2022-09-17T10:47:01;3.53;;;0.67;;
15812;SDS011;8007;51.404;6.304;2022-09-17T10:49:07;5.27;;;0.70;;
15812;SDS011;8007;51.404;6.304;2022-09-17T10:51:18;2.80;;;0.60;;
15812;SDS011;8007;51.404;6.304;2022-09-17T10:53:23;2.53;;;0.70;;
15812;SDS011;8007;51.404;6.304;2022-09-17T10:55:27;2.20;;;0.80;;
15812;SDS011;8007;51.404;6.304;2022-09-17T10:57:42;1.07;;;0.43;;
15812;SDS011;8007;51.404;6.304;2022-09-17T10:59:57;5.27;;;0.63;;
15812;SDS011;8007;51.404;6.304;2022-09-17T11:02:12;0.50;;;0.30;;
15812;SDS011;8007;51.404;6.304;2022-09-17T11:04:45;1.83;;;0.33;;
15812;SDS011;8007;51.404;6.304;2022-09-17T11:07:11;1.00;;;0.40;;
15812;SDS011;8007;51.404;6.304;2022-09-17T11:09:28;4.37;;;0.97;;
15812;SDS011;8007;51.404;6.304;2022-09-17T11:11:39;0.83;;;0.40;;
15812;SDS011;8007;51.404;6.304;2022-09-17T11:13:49;2.60;;;0.90;;
15812;SDS011;8007;51.404;6.304;2022-09-17T11:15:59;1.07;;;0.40;;
15812;SDS011;8007;51.404;6.304;2022-09-17T11:18:35;3.13;;;0.60;;
15812;SDS011;8007;51.404;6.304;2022-09-17T11:20:46;1.77;;;0.50;;
15812;SDS011;8007;51.404;6.304;2022-09-17T11:23:16;1.47;;;0.53;;
15812;SDS011;8007;51.404;6.304;2022-09-17T11:25:31;1.87;;;0.77;;
15812;SDS011;8007;51.404;6.304;2022-09-17T11:27:43;2.17;;;0.70;;
15812;SDS011;8007;51.404;6.304;2022-09-17T11:30:07;2.50;;;0.63;;
15812;SDS011;8007;51.404;6.304;2022-09-17T11:32:20;2.50;;;0.50;;
15812;SDS011;8007;51.404;6.304;2022-09-17T11:34:34;2.37;;;0.67;;
15812;SDS011;8007;51.404;6.304;2022-09-17T11:36:40;1.90;;;0.57;;
15812;SDS011;8007;51.404;6.304;2022-09-17T11:38:48;1.97;;;0.80;;
15812;SDS011;8007;51.404;6.304;2022-09-17T11:40:51;2.00;;;0.70;;
15812;SDS011;8007;51.404;6.304;2022-09-17T11:43:01;3.10;;;1.03;;
15812;SDS011;8007;51.404;6.304;2022-09-17T11:45:09;5.50;;;1.10;;
15812;SDS011;8007;51.404;6.304;2022-09-17T11:47:15;3.30;;;0.80;;
15812;SDS011;8007;51.404;6.304;2022-09-17T11:49:22;5.60;;;0.90;;
15812;SDS011;8007;51.404;6.304;2022-09-17T11:51:29;2.57;;;0.80;;
15812;SDS011;8007;51.404;6.304;2022-09-17T11:53:33;3.83;;;0.80;;
15812;SDS011;8007;51.404;6.304;2022-09-17T11:55:38;2.33;;;0.70;;
15812;SDS011;8007;51.404;6.304;2022-09-17T11:57:45;0.83;;;0.40;;
15812;SDS011;8007;51.404;6.304;2022-09-17T11:59:49;1.83;;;0.80;;
15812;SDS011;8007;51.404;6.304;2022-09-17T12:01:54;4.90;;;0.60;;
15812;SDS011;8007;51.404;6.304;2022-09-17T12:03:59;3.27;;;0.50;;
15812;SDS011;8007;51.404;6.304;2022-09-17T12:06:05;1.47;;;0.30;;
15812;SDS011;8007;51.404;6.304;2022-09-17T12:08:12;1.83;;;0.50;;
15812;SDS011;8007;51.404;6.304;2022-09-17T12:10:24;1.00;;;0.40;;
15812;SDS011;8007;51.404;6.304;2022-09-17T12:12:36;1.97;;;0.47;;
15812;SDS011;8007;51.404;6.304;2022-09-17T12:14:42;2.73;;;0.60;;
15812;SDS011;8007;51.404;6.304;2022-09-17T12:16:47;1.03;;;0.40;;
15812;SDS011;8007;51.404;6.304;2022-09-17T12:18:54;1.20;;;0.60;;
15812;SDS011;8007;51.404;6.304;2022-09-17T12:21:00;0.83;;;0.33;;
15812;SDS011;8007;51.404;6.304;2022-09-17T12:23:05;2.17;;;0.30;;
15812;SDS011;8007;51.404;6.304;2022-09-17T12:25:13;1.63;;;0.40;;
15812;SDS011;8007;51.404;6.304;2022-09-17T12:27:17;1.93;;;0.30;;
15812;SDS011;8007;51.404;6.304;2022-09-17T12:29:32;1.93;;;0.47;;
15812;SDS011;8007;51.404;6.304;2022-09-17T12:31:41;1.03;;;0.47;;
15812;SDS011;8007;51.404;6.304;2022-09-17T12:33:47;2.87;;;0.73;;
15812;SDS011;8007;51.404;6.304;2022-09-17T12:35:58;2.37;;;0.50;;
15812;SDS011;8007;51.404;6.304;2022-09-17T12:38:34;2.70;;;0.50;;
15812;SDS011;8007;51.404;6.304;2022-09-17T12:40:56;2.40;;;0.40;;
15812;SDS011;8007;51.404;6.304;2022-09-17T12:43:04;1.77;;;0.53;;
15812;SDS011;8007;51.404;6.304;2022-09-17T12:45:18;0.97;;;0.47;;
15812;SDS011;8007;51.404;6.304;2022-09-17T12:47:33;1.60;;;0.50;;
15812;SDS011;8007;51.404;6.304;2022-09-17T12:52:18;6.33;;;3.17;;
15812;SDS011;8007;51.404;6.304;2022-09-17T12:54:31;3.17;;;0.60;;
15812;SDS011;8007;51.404;6.304;2022-09-17T12:56:50;1.83;;;0.70;;